Time;durP1;ratioP1;P1;durP2;ratioP2;P2;SDS_P1;SDS_P2;PMS_P1;PMS_P2;Temp;Humidity;BMP_temperature;BMP_pressure;BME280_temperature;BME280_humidity;BME280_pressure;Samples;Min_cycle;Max_cycle;Signal;HPM_P1;HPM_P2
2022/06/09 00:01:17;;;;;;;34.25;19.60;;;;;;;14.02;81.24;99627.16;10480748;28;20051;-80
2022/06/09 00:06:21;;;;;;;35.50;22.65;;;;;;;14.03;81.52;99631.53;10461878;28;20072;-80
2022/06/09 00:11:27;;;;;;;36.38;22.63;;;;;;;14.02;81.14;99640.66;10462686;28;20052;-81
2022/06/09 00:16:32;;;;;;;43.47;24.25;;;;;;;14.01;81.29;99639.78;10458647;28;20052;-81
2022/06/09 00:21:35;;;;;;;40.20;25.33;;;;;;;14.11;81.49;99636.97;10464742;28;20083;-81
2022/06/09 00:26:39;;;;;;;37.88;24.98;;;;;;;13.96;80.94;99639.47;10465148;28;20104;-81
2022/06/09 00:31:44;;;;;;;43.38;26.27;;;;;;;14.02;80.59;99636.09;10466450;28;20072;-80
2022/06/09 00:36:47;;;;;;;41.83;24.05;;;;;;;13.91;80.86;99647.22;10491777;28;20048;-80
2022/06/09 00:41:50;;;;;;;37.70;23.17;;;;;;;13.99;81.05;99663.44;10491500;28;20044;-81
2022/06/09 00:46:58;;;;;;;42.78;24.98;;;;;;;14.04;80.82;99646.72;10484509;28;20056;-80
2022/06/09 00:52:04;;;;;;;39.63;20.67;;;;;;;14.01;80.87;99656.00;10502073;28;20049;-82
2022/06/09 00:57:12;;;;;;;36.20;21.58;;;;;;;13.91;81.01;99661.53;10499829;28;20043;-81
2022/06/09 01:16:03;;;;;;;32.63;20.90;;;;;;;13.93;80.74;99667.63;10488720;28;20033;-81
2022/06/09 01:21:14;;;;;;;32.22;19.77;;;;;;;13.94;80.61;99671.19;10489991;28;20066;-83
2022/06/09 01:26:35;;;;;;;29.35;22.17;;;;;;;13.78;80.91;99668.41;10484524;28;20045;-82
2022/06/09 01:31:47;;;;;;;31.20;20.48;;;;;;;13.88;80.64;99674.53;10547317;22;20040;-84
2022/06/09 01:36:55;;;;;;;32.33;19.40;;;;;;;13.96;80.31;99673.69;10527027;28;20123;-83
2022/06/09 01:41:58;;;;;;;30.10;18.00;;;;;;;13.61;81.77;99659.41;10516826;28;20040;-83
2022/06/09 01:47:02;;;;;;;29.55;20.55;;;;;;;13.81;81.18;99666.22;10519288;28;20040;-82
2022/06/09 01:52:06;;;;;;;34.33;21.33;;;;;;;13.91;80.86;99688.53;10530805;28;20063;-83
2022/06/09 01:57:13;;;;;;;35.72;19.92;;;;;;;13.78;81.12;99671.94;10556626;28;20044;-82
2022/06/09 02:02:21;;;;;;;35.60;22.15;;;;;;;13.87;80.97;99684.47;10554136;28;20044;-83
2022/06/09 02:07:28;;;;;;;33.05;22.02;;;;;;;13.81;81.71;99686.97;10529454;28;20044;-84
2022/06/09 02:12:31;;;;;;;32.17;20.30;;;;;;;13.75;81.74;99688.47;10528668;28;20052;-83
2022/06/09 02:17:43;;;;;;;37.63;23.20;;;;;;;13.63;82.29;99684.34;10509156;28;20108;-81
2022/06/09 02:22:46;;;;;;;38.53;22.65;;;;;;;13.60;82.09;99693.66;10541065;28;20040;-83
2022/06/09 02:27:49;;;;;;;39.63;24.30;;;;;;;13.81;81.97;99692.38;10524406;28;20040;-83
2022/06/09 02:32:53;;;;;;;39.17;23.92;;;;;;;13.53;82.84;99697.13;10527734;28;20115;-82
2022/06/09 02:37:56;;;;;;;41.70;27.58;;;;;;;13.79;82.27;99695.22;10529539;28;20029;-83
2022/06/09 02:43:00;;;;;;;38.92;26.70;;;;;;;13.95;81.55;99694.44;10484257;28;20051;-82
2022/06/09 02:48:06;;;;;;;38.15;23.08;;;;;;;13.49;82.31;99707.38;10535912;28;20071;-83
2022/06/09 02:53:09;;;;;;;47.42;27.63;;;;;;;14.12;80.49;99709.72;10515527;28;20102;-82
2022/06/09 02:58:12;;;;;;;39.65;26.35;;;;;;;14.01;80.56;99711.84;10491197;28;20044;-82
2022/06/09 03:03:16;;;;;;;46.13;28.27;;;;;;;13.76;81.28;99706.34;10506809;28;20497;-82
2022/06/09 03:08:19;;;;;;;46.55;27.85;;;;;;;13.74;81.51;99708.38;10510974;28;20501;-83
2022/06/09 03:13:22;;;;;;;52.55;30.83;;;;;;;13.92;80.89;99717.22;10516357;28;20040;-81
2022/06/09 03:18:26;;;;;;;47.80;28.13;;;;;;;13.78;81.54;99723.25;10507623;28;20037;-81
2022/06/09 03:23:29;;;;;;;53.53;32.53;;;;;;;13.96;81.12;99723.16;10522929;28;20112;-81
2022/06/09 03:28:32;;;;;;;53.50;31.05;;;;;;;14.02;80.43;99717.09;10509977;28;20497;-82
2022/06/09 03:33:38;;;;;;;53.53;30.98;;;;;;;13.70;81.28;99724.03;10520270;28;20612;-82
2022/06/09 03:38:41;;;;;;;58.25;37.38;;;;;;;13.98;80.09;99728.38;10512993;28;20048;-81
2022/06/09 03:43:44;;;;;;;53.70;33.50;;;;;;;13.81;80.72;99727.47;10516885;28;20536;-81
2022/06/09 03:48:48;;;;;;;50.78;32.15;;;;;;;13.71;80.79;99725.75;10506479;28;20097;-81
2022/06/09 03:53:51;;;;;;;49.58;32.92;;;;;;;13.68;80.97;99742.22;10515261;28;20124;-82
2022/06/09 03:58:54;;;;;;;45.78;26.90;;;;;;;13.39;81.58;99747.97;10526991;28;20048;-80
2022/06/09 04:03:59;;;;;;;48.35;29.60;;;;;;;13.65;81.08;99756.06;10515684;28;20059;-82
2022/06/09 04:09:02;;;;;;;42.28;27.58;;;;;;;13.45;81.43;99760.81;10535295;28;20067;-82
2022/06/09 04:14:04;;;;;;;43.85;23.88;;;;;;;13.93;79.42;99778.34;10528033;28;20044;-81
2022/06/09 04:19:12;;;;;;;42.85;25.90;;;;;;;13.61;80.99;99778.13;10534918;28;20041;-81
2022/06/09 04:24:15;;;;;;;45.97;26.63;;;;;;;13.84;79.85;99783.84;10522053;28;20386;-81
2022/06/09 04:29:18;;;;;;;47.58;28.20;;;;;;;14.00;78.88;99793.88;10539338;28;20043;-80
2022/06/09 04:34:22;;;;;;;43.30;28.80;;;;;;;13.83;79.60;99796.50;10556939;28;20048;-81
2022/06/09 04:39:25;;;;;;;49.97;30.02;;;;;;;14.13;78.32;99805.94;10524767;28;20044;-82
2022/06/09 04:44:28;;;;;;;47.67;30.00;;;;;;;13.90;79.12;99805.66;10503186;28;20064;-82
2022/06/09 04:49:33;;;;;;;45.92;28.48;;;;;;;13.98;78.78;99815.63;10531364;28;20028;-80
2022/06/09 04:54:36;;;;;;;44.00;29.55;;;;;;;14.18;78.25;99818.97;10541955;28;20062;-81
2022/06/09 04:59:39;;;;;;;41.90;26.70;;;;;;;13.92;78.39;99818.97;10503209;28;20052;-82
2022/06/09 05:04:44;;;;;;;44.30;28.35;;;;;;;13.91;78.89;99839.72;10536758;28;20130;-81
2022/06/09 05:09:47;;;;;;;42.00;29.77;;;;;;;13.77;78.93;99831.34;10520238;28;20094;-80
2022/06/09 05:14:51;;;;;;;41.28;28.23;;;;;;;14.25;77.31;99841.59;10511277;28;20046;-81
2022/06/09 05:19:56;;;;;;;47.60;29.45;;;;;;;14.11;77.23;99842.22;10508647;28;20036;-81
2022/06/09 05:24:59;;;;;;;41.42;25.58;;;;;;;14.07;76.91;99843.50;10511758;28;20121;-82
2022/06/09 05:30:02;;;;;;;42.63;26.48;;;;;;;13.93;78.04;99859.31;10532986;28;20049;-80
2022/06/09 05:35:09;;;;;;;41.90;28.90;;;;;;;13.91;78.35;99853.22;10476085;28;20552;-80
2022/06/09 05:45:38;;;;;;;48.72;30.90;;;;;;;13.76;79.31;99857.50;10474859;28;20098;-80
2022/06/09 05:50:43;;;;;;;44.38;31.73;;;;;;;14.18;78.08;99867.56;10518416;28;20508;-80
2022/06/09 05:55:46;;;;;;;48.20;27.25;;;;;;;14.02;77.01;99880.97;10536088;28;20085;-80
2022/06/09 06:00:49;;;;;;;41.63;28.20;;;;;;;14.25;77.00;99882.13;10516147;28;20036;-80
2022/06/09 06:11:14;;;;;;;44.38;30.80;;;;;;;14.65;76.50;99906.84;10513243;28;20136;-81
2022/06/09 06:16:18;;;;;;;40.17;26.75;;;;;;;14.26;76.43;99918.06;10520182;28;20086;-81
2022/06/09 06:21:39;;;;;;;40.08;22.02;;;;;;;14.37;75.73;99931.31;10543631;28;20040;-79
2022/06/09 06:26:43;;;;;;;35.30;23.38;;;;;;;14.30;76.39;99932.97;10537827;28;20075;-81
2022/06/09 06:31:46;;;;;;;34.13;25.42;;;;;;;14.86;74.93;99936.97;10539192;28;20135;-81
2022/06/09 06:36:50;;;;;;;30.80;22.00;;;;;;;14.59;75.41;99943.47;10519104;28;20096;-80
2022/06/09 06:41:53;;;;;;;30.30;21.17;;;;;;;14.57;74.96;99953.59;10511027;28;20040;-79
2022/06/09 06:46:56;;;;;;;33.17;22.83;;;;;;;14.41;75.04;99967.00;10533014;28;20114;-81
2022/06/09 06:52:00;;;;;;;34.20;20.95;;;;;;;14.61;75.46;99965.78;10540310;28;20070;-81
2022/06/09 06:57:05;;;;;;;33.28;21.67;;;;;;;14.70;74.69;99975.63;10519994;28;20041;-81
2022/06/09 07:02:10;;;;;;;29.38;19.27;;;;;;;14.98;73.37;99978.97;10523360;28;20481;-81
2022/06/09 07:07:15;;;;;;;37.15;18.63;;;;;;;15.18;72.95;99994.94;10511778;28;20059;-80
2022/06/09 07:12:18;;;;;;;22.23;15.93;;;;;;;15.53;71.38;99993.88;10517814;28;20036;-81
2022/06/09 07:17:21;;;;;;;21.30;15.38;;;;;;;15.81;70.77;100007.97;10537126;28;20048;-80
2022/06/09 07:22:25;;;;;;;19.85;13.68;;;;;;;15.95;69.34;100009.16;10532950;28;20070;-80
2022/06/09 07:27:28;;;;;;;22.95;14.35;;;;;;;15.98;68.41;100021.53;10536782;28;20143;-79
2022/06/09 07:32:31;;;;;;;21.65;13.93;;;;;;;16.01;68.38;100030.16;10502547;28;20044;-81
2022/06/09 07:37:36;;;;;;;22.48;13.93;;;;;;;16.10;67.78;100039.16;10520022;28;20040;-80
2022/06/09 07:42:39;;;;;;;19.15;13.00;;;;;;;15.72;69.02;100035.22;10516744;28;20456;-78
2022/06/09 07:47:42;;;;;;;18.05;12.63;;;;;;;15.94;68.40;100053.53;10511636;28;20048;-81
2022/06/09 07:52:47;;;;;;;21.88;13.80;;;;;;;15.84;68.67;100056.38;10509288;28;20048;-80
2022/06/09 07:57:50;;;;;;;21.38;13.43;;;;;;;15.20;70.02;100061.41;10509901;28;20048;-80
2022/06/09 08:02:54;;;;;;;23.27;14.80;;;;;;;15.58;69.86;100066.47;10519350;28;20531;-81
2022/06/09 08:07:59;;;;;;;23.10;15.88;;;;;;;16.86;66.17;100073.16;10517786;28;20048;-80
2022/06/09 08:13:03;;;;;;;21.95;13.40;;;;;;;17.57;62.74;100060.53;10514712;28;20439;-81
2022/06/09 08:18:09;;;;;;;26.63;13.50;;;;;;;16.33;65.40;100088.97;10508466;28;20082;-80
2022/06/09 08:23:17;;;;;;;20.27;13.77;;;;;;;16.56;66.22;100083.72;10513682;28;20044;-81
2022/06/09 08:28:20;;;;;;;22.48;13.75;;;;;;;16.57;66.57;100090.84;10512704;28;20488;-78
2022/06/09 08:33:25;;;;;;;20.45;15.57;;;;;;;16.82;66.36;100093.50;10523352;28;20040;-77
2022/06/09 08:38:29;;;;;;;23.60;17.33;;;;;;;16.35;67.66;100102.38;10537138;28;20079;-79
2022/06/09 08:43:40;;;;;;;22.40;14.05;;;;;;;16.60;65.64;100100.50;10520143;28;20039;-80
2022/06/09 08:48:45;;;;;;;18.30;13.43;;;;;;;16.00;68.12;100106.19;10516745;28;20048;-79
2022/06/09 08:53:54;;;;;;;17.92;10.18;;;;;;;16.32;67.39;100116.25;10532006;28;20503;-78
2022/06/09 08:59:00;;;;;;;17.77;12.10;;;;;;;16.55;66.55;100102.84;10531945;28;20048;-81
2022/06/09 09:04:16;;;;;;;17.90;12.20;;;;;;;17.35;64.45;100102.88;10506390;28;20049;-80
2022/06/09 09:09:23;;;;;;;19.95;11.32;;;;;;;17.64;63.16;100110.41;10550055;28;20058;-81
2022/06/09 09:14:34;;;;;;;13.13;10.05;;;;;;;17.54;63.89;100111.66;10540570;28;20063;-80
2022/06/09 09:19:51;;;;;;;11.82;9.27;;;;;;;18.17;61.19;100094.31;10506735;28;20044;-82
2022/06/09 09:25:08;;;;;;;13.75;9.18;;;;;;;17.80;61.41;100128.50;10519871;28;20040;-80
2022/06/09 09:30:21;;;;;;;9.43;7.55;;;;;;;17.86;60.47;100121.50;10501396;28;20048;-81
2022/06/09 09:35:32;;;;;;;10.82;7.53;;;;;;;18.84;57.98;100112.69;10514239;28;20072;-81
2022/06/09 09:40:42;;;;;;;12.02;7.45;;;;;;;18.15;58.50;100123.56;10499304;28;20048;-79
2022/06/09 09:45:48;;;;;;;9.88;7.45;;;;;;;18.47;58.28;100133.34;10516489;28;20077;-78
2022/06/09 09:50:54;;;;;;;15.90;8.25;;;;;;;18.98;57.95;100135.50;10522259;28;20050;-79
2022/06/09 09:56:00;;;;;;;9.43;6.68;;;;;;;19.07;58.66;100128.94;10516512;28;20750;-79
2022/06/09 10:01:06;;;;;;;11.23;6.47;;;;;;;19.88;54.11;100137.16;10515238;28;20093;-79
2022/06/09 10:12:07;;;;;;;8.40;5.88;;;;;;;18.64;56.24;100141.38;10504077;28;20139;-79
2022/06/09 10:17:38;;;;;;;8.25;6.22;;;;;;;19.04;55.45;100137.47;10528876;28;20067;-79
2022/06/09 10:23:18;;;;;;;7.80;5.00;;;;;;;20.30;53.35;100141.84;10468655;28;20059;-80
2022/06/09 10:28:31;;;;;;;6.85;4.90;;;;;;;20.56;51.03;100149.47;10523614;28;20493;-80
2022/06/09 10:33:40;;;;;;;13.63;5.03;;;;;;;21.23;49.57;100163.72;10527163;28;20047;-79
2022/06/09 10:38:47;;;;;;;7.70;4.43;;;;;;;21.43;48.81;100156.47;10529413;28;20158;-80
2022/06/09 10:44:09;;;;;;;7.25;6.32;;;;;;;20.54;52.21;100167.94;10456410;28;20059;-79
2022/06/09 11:00:16;;;;;;;4.82;3.75;;;;;;;21.03;49.21;100185.34;10358581;28;20755;-79
2022/06/09 11:05:25;;;;;;;8.02;3.13;;;;;;;21.78;48.09;100172.88;10337530;28;20065;-80
2022/06/09 11:10:42;;;;;;;7.97;3.65;;;;;;;23.31;46.30;100175.94;10369460;28;20681;-80
2022/06/09 11:16:00;;;;;;;3.65;2.90;;;;;;;22.25;46.96;100195.78;10362169;28;20388;-79
2022/06/09 11:21:15;;;;;;;6.15;2.70;;;;;;;20.44;50.42;100204.75;10362019;28;20057;-78
2022/06/09 11:26:25;;;;;;;5.63;2.65;;;;;;;19.98;50.22;100207.75;10358787;28;20049;-79
2022/06/09 11:31:41;;;;;;;5.55;3.42;;;;;;;19.40;57.85;100222.00;10365063;28;21257;-78
2022/06/09 11:36:57;;;;;;;4.57;3.20;;;;;;;18.88;58.63;100222.00;10357186;28;20057;-79
2022/06/09 11:42:04;;;;;;;5.45;4.28;;;;;;;18.41;60.79;100228.41;10353529;28;20170;-79
2022/06/09 11:47:12;;;;;;;7.78;4.32;;;;;;;20.00;56.49;100232.94;10350440;28;20150;-80
2022/06/09 11:52:19;;;;;;;6.28;3.58;;;;;;;21.18;51.64;100234.47;10375689;28;20052;-80
2022/06/09 11:57:26;;;;;;;5.05;3.20;;;;;;;21.45;51.45;100225.44;10408318;28;20107;-78
2022/06/09 12:02:47;;;;;;;4.75;3.28;;;;;;;21.87;50.28;100220.03;10374355;28;20049;-79
2022/06/09 12:08:12;;;;;;;3.30;1.95;;;;;;;22.65;47.49;100215.03;10396529;28;20187;-78
2022/06/09 12:13:23;;;;;;;4.88;2.10;;;;;;;21.99;48.36;100225.75;10392275;28;20041;-79
2022/06/09 12:18:38;;;;;;;2.72;1.40;;;;;;;22.19;45.95;100223.09;10417657;28;20049;-77
2022/06/09 12:23:44;;;;;;;8.32;2.15;;;;;;;21.30;47.90;100238.34;10394367;28;20053;-79
2022/06/09 12:29:00;;;;;;;2.40;1.60;;;;;;;20.73;49.44;100239.25;10400953;28;20159;-79
2022/06/09 12:34:08;;;;;;;3.15;2.20;;;;;;;20.45;50.06;100253.66;10393931;28;20041;-79
2022/06/09 12:39:20;;;;;;;5.00;1.85;;;;;;;21.42;49.83;100261.34;10399147;28;20061;-80
2022/06/09 12:44:29;;;;;;;3.63;1.95;;;;;;;20.71;50.36;100266.75;10399399;28;20049;-79
2022/06/09 12:49:37;;;;;;;1.88;1.10;;;;;;;21.08;45.52;100266.72;10399202;28;20057;-78
2022/06/09 12:54:41;;;;;;;4.63;1.50;;;;;;;21.75;46.96;100277.16;10402965;28;20621;-79
2022/06/09 12:59:44;;;;;;;1.52;1.00;;;;;;;20.69;46.38;100271.56;10391602;28;20045;-78
2022/06/09 13:04:54;;;;;;;1.40;0.75;;;;;;;21.31;46.63;100271.94;10408660;28;20049;-81
2022/06/09 13:10:08;;;;;;;1.17;0.43;;;;;;;21.66;44.28;100284.63;10411972;28;20064;-78
2022/06/09 13:15:34;;;;;;;1.00;0.60;;;;;;;21.30;44.78;100290.25;10393945;28;20534;-79
2022/06/09 13:20:40;;;;;;;1.92;0.85;;;;;;;20.77;47.43;100314.28;10423364;28;21273;-78
2022/06/09 13:25:46;;;;;;;3.80;2.53;;;;;;;17.80;57.97;100362.16;10405786;28;20060;-79
2022/06/09 13:30:52;;;;;;;8.43;3.40;;;;;;;15.73;68.97;100376.22;10402881;28;20057;-78
2022/06/09 13:36:10;;;;;;;5.25;3.22;;;;;;;14.84;70.22;100371.69;10407181;28;20073;-79
2022/06/09 13:41:19;;;;;;;7.00;3.97;;;;;;;15.26;69.93;100374.63;10382763;28;20595;-80
2022/06/09 13:46:28;;;;;;;6.63;4.32;;;;;;;15.54;69.98;100392.66;10408801;28;20611;-80
2022/06/09 13:51:35;;;;;;;12.52;6.13;;;;;;;15.46;73.70;100390.72;10398881;28;20042;-79
2022/06/09 13:56:38;;;;;;;15.32;7.82;;;;;;;13.76;86.46;100421.69;10394113;28;20094;-80
2022/06/09 14:01:41;;;;;;;18.80;10.23;;;;;;;13.89;89.56;100438.44;10401069;28;20041;-78
2022/06/09 14:06:46;;;;;;;14.00;10.13;;;;;;;14.30;88.57;100451.72;10437494;28;20072;-78
2022/06/09 14:11:49;;;;;;;13.68;11.43;;;;;;;14.58;87.79;100447.22;10410361;28;20053;-79
2022/06/09 14:17:18;;;;;;;;;;;;;;;14.66;87.58;100444.63;10401191;28;20045;-80
2022/06/09 14:22:22;;;;;;;9.88;8.27;;;;;;;14.94;87.30;100448.16;10410480;28;19929;-79
2022/06/09 14:27:25;;;;;;;10.07;6.90;;;;;;;15.10;86.70;100452.91;10398488;28;20568;-80
2022/06/09 14:32:28;;;;;;;11.18;7.25;;;;;;;15.36;87.69;100450.38;10408693;28;20061;-80
2022/06/09 14:37:33;;;;;;;7.43;6.43;;;;;;;15.55;87.58;100452.06;10409394;28;20101;-79
2022/06/09 14:42:35;;;;;;;8.52;6.18;;;;;;;15.65;86.02;100455.53;10392697;28;20048;-81
2022/06/09 14:47:38;;;;;;;7.60;6.80;;;;;;;15.81;86.05;100453.97;10407067;28;20049;-82
2022/06/09 14:52:43;;;;;;;9.02;8.15;;;;;;;16.74;88.80;100459.69;10421208;28;20414;-81
2022/06/09 14:57:46;;;;;;;9.43;5.32;;;;;;;18.32;83.33;100456.88;10413028;28;20049;-80
2022/06/09 15:02:49;;;;;;;11.80;6.15;;;;;;;19.20;79.07;100458.59;10395271;28;20115;-82
2022/06/09 15:07:54;;;;;;;9.38;5.03;;;;;;;19.78;77.44;100455.50;10379374;28;20061;-80
2022/06/09 15:12:58;;;;;;;5.43;4.93;;;;;;;19.84;70.57;100465.66;10403708;28;20040;-81
2022/06/09 15:18:01;;;;;;;7.13;4.63;;;;;;;19.59;70.61;100460.41;10402889;28;20053;-81
2022/06/09 15:23:08;;;;;;;5.45;4.40;;;;;;;20.05;67.08;100470.44;10395759;28;20059;-82
2022/06/09 15:28:14;;;;;;;5.43;4.32;;;;;;;19.68;66.00;100466.63;10406070;28;21116;-80
2022/06/09 15:33:21;;;;;;;10.18;5.25;;;;;;;20.25;63.86;100465.28;10406353;28;20049;-81
2022/06/09 15:38:26;;;;;;;5.43;4.28;;;;;;;19.23;65.20;100474.56;10412928;28;20417;-82
2022/06/09 15:43:28;;;;;;;4.45;4.05;;;;;;;19.08;66.63;100487.22;10403191;28;20392;-79
2022/06/09 15:48:31;;;;;;;9.88;3.75;;;;;;;20.10;71.23;100503.41;10407946;28;20041;-78
2022/06/09 15:53:36;;;;;;;3.78;2.17;;;;;;;21.57;68.23;100509.09;10439387;28;20053;-78
2022/06/09 15:58:39;;;;;;;3.67;1.67;;;;;;;22.82;66.01;100503.03;10417601;28;20762;-79
2022/06/09 16:03:42;;;;;;;2.58;1.55;;;;;;;21.81;60.74;100505.19;10405051;28;20755;-78
2022/06/09 16:08:46;;;;;;;1.50;0.98;;;;;;;22.80;61.40;100509.75;10394478;28;20056;-79
2022/06/09 16:13:49;;;;;;;1.25;0.63;;;;;;;24.04;63.20;100506.84;10412936;28;20421;-79
2022/06/09 16:18:52;;;;;;;1.63;0.80;;;;;;;22.15;51.85;100507.16;10387796;28;20633;-79
2022/06/09 16:23:56;;;;;;;2.58;1.15;;;;;;;22.12;53.80;100504.81;10401293;28;20053;-77
2022/06/09 16:28:59;;;;;;;1.77;1.05;;;;;;;20.90;56.54;100508.25;10399622;28;20045;-77
2022/06/09 16:34:02;;;;;;;3.42;1.05;;;;;;;20.72;61.15;100513.25;10395546;28;20144;-78
2022/06/09 16:39:06;;;;;;;4.78;1.60;;;;;;;24.82;58.42;100506.13;10391223;28;20045;-77
2022/06/09 16:44:09;;;;;;;4.07;1.70;;;;;;;24.42;48.34;100512.56;10407045;28;20049;-78
2022/06/09 16:49:12;;;;;;;2.97;1.50;;;;;;;27.33;41.95;100523.78;10408511;28;20044;-81
2022/06/09 16:54:17;;;;;;;4.03;1.58;;;;;;;24.18;44.84;100524.97;10415473;28;20049;-78
2022/06/09 16:59:20;;;;;;;4.43;1.40;;;;;;;25.46;42.11;100526.44;10422432;28;20450;-80
2022/06/09 17:04:22;;;;;;;3.15;1.27;;;;;;;23.07;45.40;100527.19;10424580;28;21250;-80
2022/06/09 17:09:30;;;;;;;4.47;1.70;;;;;;;25.72;41.46;100537.31;10414117;28;20701;-79
2022/06/09 17:14:34;;;;;;;4.57;1.80;;;;;;;27.36;38.96;100534.34;10434030;28;20045;-78
2022/06/09 17:19:37;;;;;;;4.50;1.30;;;;;;;28.35;36.68;100539.50;10404147;28;20049;-80
2022/06/09 17:24:42;;;;;;;4.70;1.30;;;;;;;27.17;37.93;100541.78;10401948;28;20045;-79
2022/06/09 17:29:45;;;;;;;3.58;1.45;;;;;;;27.13;38.31;100549.69;10416680;28;20076;-79
2022/06/09 17:34:53;;;;;;;3.30;1.30;;;;;;;28.10;37.01;100556.28;10413069;28;20057;-80
2022/06/09 17:39:58;;;;;;;2.35;1.25;;;;;;;25.92;40.33;100566.59;10426057;28;20053;-79
2022/06/09 17:45:01;;;;;;;4.60;1.13;;;;;;;23.43;44.06;100585.34;10427269;28;20072;-80
2022/06/09 17:50:06;;;;;;;6.80;1.80;;;;;;;21.23;49.20;100590.66;10422739;28;21217;-79
2022/06/09 17:55:12;;;;;;;4.53;2.00;;;;;;;20.11;51.68;100590.50;10409960;28;20048;-80
2022/06/09 18:00:20;;;;;;;2.80;1.40;;;;;;;19.55;52.56;100597.97;10415408;28;20045;-80
2022/06/09 18:05:24;;;;;;;2.95;1.65;;;;;;;19.04;54.98;100602.13;10384236;28;20058;-79
2022/06/09 18:10:31;;;;;;;10.07;2.33;;;;;;;18.45;56.69;100610.50;10413840;28;20057;-78
2022/06/09 18:15:38;;;;;;;5.68;2.13;;;;;;;18.23;57.18;100614.72;10412708;28;20053;-79
2022/06/09 18:20:42;;;;;;;8.15;2.30;;;;;;;18.43;57.15;100617.97;10410517;28;20045;-78
2022/06/09 18:25:48;;;;;;;4.25;2.38;;;;;;;18.21;57.64;100625.78;10416039;28;20125;-79
2022/06/09 18:30:52;;;;;;;4.38;2.28;;;;;;;18.19;58.00;100640.56;10422827;28;20053;-78
2022/06/09 18:35:56;;;;;;;4.82;2.47;;;;;;;17.69;60.17;100642.28;10427440;28;20510;-79
2022/06/09 18:41:01;;;;;;;8.68;2.38;;;;;;;17.81;59.11;100643.69;10413090;28;20061;-81
2022/06/09 18:46:07;;;;;;;5.72;2.45;;;;;;;17.79;59.81;100647.56;10426580;28;20045;-79
2022/06/09 18:51:10;;;;;;;5.53;2.60;;;;;;;17.75;60.30;100652.50;10425321;28;20045;-80
2022/06/09 18:56:16;;;;;;;5.47;2.70;;;;;;;17.74;59.80;100652.66;10443208;28;20045;-80
2022/06/09 19:01:19;;;;;;;4.95;2.97;;;;;;;17.68;59.81;100671.31;10432616;28;20057;-78
2022/06/09 19:06:23;;;;;;;5.07;2.40;;;;;;;17.60;59.93;100675.84;10430436;28;21121;-79
2022/06/09 19:11:27;;;;;;;6.75;2.50;;;;;;;17.47;59.96;100682.59;10434682;28;20052;-80
2022/06/09 19:16:31;;;;;;;5.65;2.35;;;;;;;17.39;60.32;100692.56;10406449;28;21136;-80
2022/06/09 19:21:34;;;;;;;4.20;2.28;;;;;;;17.38;60.33;100685.44;10394235;28;20079;-79
2022/06/09 19:26:39;;;;;;;3.30;2.30;;;;;;;17.47;59.97;100695.34;10411460;28;20045;-79
2022/06/09 19:31:41;;;;;;;4.93;2.55;;;;;;;17.43;60.43;100693.94;10429166;28;20040;-78
2022/06/09 19:36:45;;;;;;;7.35;2.10;;;;;;;17.34;60.72;100701.19;10411244;28;20060;-79
2022/06/09 19:41:50;;;;;;;5.82;2.42;;;;;;;17.11;61.85;100706.25;10442515;28;20098;-79
2022/06/09 19:46:53;;;;;;;6.30;2.83;;;;;;;16.84;62.88;100725.41;10404091;28;20060;-79
2022/06/09 19:51:56;;;;;;;4.63;2.83;;;;;;;16.69;62.90;100730.53;10407292;28;20059;-80
2022/06/09 19:57:01;;;;;;;6.70;2.80;;;;;;;16.79;62.79;100744.88;10427056;28;20123;-80
2022/06/09 20:02:04;;;;;;;9.15;2.85;;;;;;;16.69;63.10;100754.94;10408307;28;20060;-79
2022/06/09 20:07:11;;;;;;;7.53;3.00;;;;;;;16.62;63.16;100760.16;10415799;28;20095;-79
2022/06/09 20:12:15;;;;;;;6.63;2.80;;;;;;;16.55;63.60;100759.06;10422167;28;20203;-79
2022/06/09 20:17:21;;;;;;;6.47;3.00;;;;;;;16.46;63.95;100770.84;10407583;28;20118;-78
2022/06/09 20:22:24;;;;;;;7.80;3.92;;;;;;;16.37;64.08;100780.72;10407115;28;20057;-78
2022/06/09 20:27:29;;;;;;;6.65;2.83;;;;;;;16.29;64.64;100791.47;10411392;28;20049;-79
2022/06/09 20:32:33;;;;;;;7.07;3.42;;;;;;;16.22;64.66;100793.06;10401560;28;20107;-80
2022/06/09 20:37:37;;;;;;;9.40;2.95;;;;;;;16.13;65.13;100792.97;10407387;28;20486;-79
2022/06/09 20:42:42;;;;;;;6.78;3.15;;;;;;;16.00;65.46;100797.88;10402898;28;20145;-79
2022/06/09 20:47:46;;;;;;;9.45;3.42;;;;;;;15.90;65.59;100806.03;10388039;28;20046;-81
2022/06/09 20:52:49;;;;;;;8.55;3.40;;;;;;;15.85;65.81;100812.91;10391296;28;20065;-81
2022/06/09 20:57:53;;;;;;;6.18;3.13;;;;;;;15.34;67.53;100815.03;10388516;28;20503;-81
2022/06/09 21:02:57;;;;;;;7.72;3.47;;;;;;;15.39;67.62;100822.75;10386770;28;20057;-80
2022/06/09 21:08:00;;;;;;;7.03;3.60;;;;;;;15.53;67.82;100818.72;10398086;28;20056;-80
2022/06/09 21:18:31;;;;;;;8.30;4.00;;;;;;;15.25;68.57;100832.97;10418980;28;20064;-79
2022/06/09 21:23:34;;;;;;;7.63;4.45;;;;;;;15.26;68.67;100828.41;10410251;28;20045;-78
2022/06/09 21:28:39;;;;;;;5.53;4.25;;;;;;;15.33;67.80;100843.09;10409484;28;20045;-78
2022/06/09 21:33:42;;;;;;;7.28;4.20;;;;;;;15.29;68.71;100849.78;10409413;28;20080;-79
2022/06/09 21:38:46;;;;;;;9.13;3.97;;;;;;;15.44;67.57;100844.78;10405616;28;20057;-79
2022/06/09 21:43:50;;;;;;;6.32;4.32;;;;;;;15.41;67.86;100842.38;10413028;28;20140;-79
2022/06/09 21:48:53;;;;;;;8.98;4.30;;;;;;;15.32;67.96;100851.34;10423366;28;20053;-79
2022/06/09 21:53:56;;;;;;;11.25;4.85;;;;;;;14.93;69.06;100854.06;10412739;28;20718;-78
2022/06/09 21:59:00;;;;;;;6.97;4.45;;;;;;;15.10;68.54;100858.75;10399461;28;20049;-78
2022/06/09 22:04:04;;;;;;;10.52;4.35;;;;;;;15.02;68.41;100870.28;10430874;28;21296;-78
2022/06/09 22:09:07;;;;;;;12.63;5.10;;;;;;;15.00;68.35;100866.88;10402811;28;20053;-79
2022/06/09 22:14:11;;;;;;;9.30;4.95;;;;;;;14.94;68.88;100863.88;10412950;28;20149;-78
2022/06/09 22:19:14;;;;;;;10.88;5.28;;;;;;;14.89;68.88;100871.53;10408166;28;20055;-79
2022/06/09 22:24:17;;;;;;;5.82;4.85;;;;;;;14.72;69.65;100883.91;10407879;28;20053;-78
2022/06/09 22:29:23;;;;;;;10.82;5.93;;;;;;;14.79;69.00;100875.09;10420790;28;20110;-79
2022/06/09 22:34:26;;;;;;;10.85;5.18;;;;;;;14.77;69.05;100881.66;10414284;28;20577;-78
2022/06/09 22:39:29;;;;;;;9.23;5.35;;;;;;;14.33;71.03;100883.78;10416935;28;20126;-78
2022/06/09 22:44:33;;;;;;;14.55;5.60;;;;;;;14.44;71.32;100883.69;10427791;28;20052;-79
2022/06/09 22:49:36;;;;;;;11.43;5.45;;;;;;;14.44;71.21;100883.69;10428060;28;20155;-78
2022/06/09 22:54:39;;;;;;;10.32;5.82;;;;;;;14.46;71.01;100895.22;10432677;28;20053;-79
2022/06/09 22:59:43;;;;;;;10.65;5.80;;;;;;;14.43;71.03;100902.78;10421500;28;20045;-79
2022/06/09 23:04:46;;;;;;;12.82;6.05;;;;;;;14.34;71.58;100902.56;10416849;28;20058;-79
2022/06/09 23:09:49;;;;;;;9.32;6.50;;;;;;;14.24;71.71;100901.66;10442892;28;20057;-78
2022/06/09 23:14:53;;;;;;;9.10;6.80;;;;;;;14.22;71.81;100911.75;10430921;28;20061;-79
2022/06/09 23:19:56;;;;;;;9.73;6.55;;;;;;;14.09;72.15;100911.09;10436097;28;20057;-79
2022/06/09 23:24:59;;;;;;;8.82;6.90;;;;;;;13.88;72.92;100913.84;10422364;28;20053;-79
2022/06/09 23:30:03;;;;;;;;;;;;;;;14.00;72.66;100918.16;10414984;28;20608;-79
2022/06/09 23:35:07;;;;;;;10.75;7.82;;;;;;;13.99;72.68;100916.47;10419751;28;19955;-79
2022/06/09 23:40:16;;;;;;;11.90;7.13;;;;;;;14.01;72.71;100924.41;10407303;28;20502;-78
2022/06/09 23:45:32;;;;;;;11.50;7.40;;;;;;;14.00;72.81;100923.56;10424234;28;20075;-79
2022/06/09 23:50:39;;;;;;;15.20;8.20;;;;;;;13.97;71.98;100925.69;10420360;28;20045;-80
2022/06/09 23:55:42;;;;;;;12.15;8.25;;;;;;;13.75;71.88;100932.94;10428933;28;20049;-78
